Kelso, North Dakota
Current Conditions -  °F | °C
As of 4:53 PM on Tuesday 25 Nov 2014 (Local Time) from KFAR Reporting Station
Overcast Overcast  
Wind Chill: 16°   Ceiling: 3000
Heat Index: 26°   Visibility: 10mi
Dew Point: 17°   Wind: 12mph
Humidity: 69%   Direction: 130°SE
Pressure: 29.91"   Gusts: NA
Location:  47.3592°N, 97.0421°W
Report Text: KFAR 252253Z 13010KT 10SM OVC030 M03/M08 A2991 RMK AO2 SLP143 T10331083
Loading
Personal Weather Stations






























Interactive Weather Map New forecast layout! Learn more

10-Day Weather Forecast

Advertisements
Track Severe Weather on mobile